Back to Top

Language: 

My Weather Underground Personal Weather Station Historical Data with Graphs...

Delerius Weather Station Historical Data
Daily Summary for January 22, 2018 Units:  Both    English   Metric
« Previous Day
Next Day »
Daily Weekly Monthly Yearly Custom
  High: Low: Average:
Temperature: 48.6 °F /  9.2 °C 42.1 °F /  5.6 °C 44.5 °F /  6.9 °C
Dew Point: 43.5 °F /  6.4 °C 37.5 °F /  3.1 °C 40.5 °F /  4.7 °C
Humidity: 91 % 75 % 86 %
Wind Speed: 20.0 mph /  32.2 km/h - 7.7 mph /  12.4 km/h
Wind Gust: 29.0 mph /  46.7 km/h - -
Wind:- - West
Pressure: 29.95 in /  1014.1 hPa 29.64 in /  1003.6 hPa -
Precipitation: 0.01 in /  0.25 mm    
Historical Graphs
 
 
Tabular Data for January 22, 2018
Time Temperature Dew Point Pressure Wind Wind Speed Wind Gust Humidity Rainfall Rate (Hourly) solar Conditions
00:03 44.8 °F /  7.1 °C 42.3 °F /  5.7 °C 29.64 in /  1003.6 hPa NW 4.0 mph /  6.4 km/h 6.0 mph /  9.7 km/h 91 % 0.00 in /  0 mm 0 W/m2
00:08 44.6 °F /  7 °C 42.1 °F /  5.6 °C 29.64 in /  1003.6 hPa NW 3.0 mph /  4.8 km/h 7.0 mph /  11.3 km/h 91 % 0.01 in /  0.25 mm 0 W/m2
00:13 44.8 °F /  7.1 °C 42.3 °F /  5.7 °C 29.64 in /  1003.6 hPa WNW 2.0 mph /  3.2 km/h 4.0 mph /  6.4 km/h 91 % 0.01 in /  0.25 mm 0 W/m2
00:18 44.6 °F /  7 °C 42.1 °F /  5.6 °C 29.64 in /  1003.6 hPa West 6.0 mph /  9.7 km/h 9.0 mph /  14.5 km/h 91 % 0.01 in /  0.25 mm 0 W/m2
00:23 44.8 °F /  7.1 °C 42.3 °F /  5.7 °C 29.64 in /  1003.6 hPa West 9.0 mph /  14.5 km/h 18.0 mph /  29 km/h 91 % 0.01 in /  0.25 mm 0 W/m2
00:28 44.8 °F /  7.1 °C 42.3 °F /  5.7 °C 29.64 in /  1003.6 hPa WNW 9.0 mph /  14.5 km/h 12.0 mph /  19.3 km/h 91 % 0.01 in /  0.25 mm 0 W/m2
00:33 44.8 °F /  7.1 °C 42.3 °F /  5.7 °C 29.64 in /  1003.6 hPa WNW 5.0 mph /  8 km/h 11.0 mph /  17.7 km/h 91 % 0.01 in /  0.25 mm 0 W/m2
00:38 44.8 °F /  7.1 °C 42.3 °F /  5.7 °C 29.64 in /  1003.6 hPa WNW 8.0 mph /  12.9 km/h 13.0 mph /  20.9 km/h 91 % 0.01 in /  0.25 mm 0 W/m2
00:43 44.6 °F /  7 °C 42.1 °F /  5.6 °C 29.64 in /  1003.6 hPa West 6.0 mph /  9.7 km/h 10.0 mph /  16.1 km/h 91 % 0.01 in /  0.25 mm 0 W/m2
00:48 44.6 °F /  7 °C 41.8 °F /  5.4 °C 29.65 in /  1003.9 hPa WSW 4.0 mph /  6.4 km/h 8.0 mph /  12.9 km/h 90 % 0.01 in /  0.25 mm 0 W/m2
00:53 44.4 °F /  6.9 °C 41.7 °F /  5.4 °C 29.65 in /  1003.9 hPa West 1.0 mph /  1.6 km/h 2.0 mph /  3.2 km/h 90 % 0.01 in /  0.25 mm 0 W/m2
00:58 44.4 °F /  6.9 °C 41.7 °F /  5.4 °C 29.65 in /  1003.9 hPa Calm   1.0 mph /  1.6 km/h 90 % 0.01 in /  0.25 mm 0 W/m2
01:03 44.2 °F /  6.8 °C 41.5 °F /  5.3 °C 29.65 in /  1003.9 hPa Calm   2.0 mph /  3.2 km/h 90 % 0.01 in /  0.25 mm 0 W/m2
01:08 44.2 °F /  6.8 °C 41.5 °F /  5.3 °C 29.65 in /  1003.9 hPa West 4.0 mph /  6.4 km/h 8.0 mph /  12.9 km/h 90 % 0.00 in /  0 mm 0 W/m2
01:13 44.1 °F /  6.7 °C 41.3 °F /  5.2 °C 29.65 in /  1003.9 hPa West 4.0 mph /  6.4 km/h 12.0 mph /  19.3 km/h 90 % 0.00 in /  0 mm 0 W/m2
01:19 44.1 °F /  6.7 °C 41.0 °F /  5 °C 29.65 in /  1003.9 hPa West 4.0 mph /  6.4 km/h 8.0 mph /  12.9 km/h 89 % 0.00 in /  0 mm 0 W/m2
01:24 44.1 °F /  6.7 °C 41.0 °F /  5 °C 29.65 in /  1003.9 hPa West 3.0 mph /  4.8 km/h 6.0 mph /  9.7 km/h 89 % 0.00 in /  0 mm 0 W/m2
01:29 44.1 °F /  6.7 °C 41.0 °F /  5 °C 29.65 in /  1003.9 hPa West 4.0 mph /  6.4 km/h 7.0 mph /  11.3 km/h 89 % 0.00 in /  0 mm 0 W/m2
01:34 43.9 °F /  6.6 °C 40.8 °F /  4.9 °C 29.65 in /  1003.9 hPa WNW 4.0 mph /  6.4 km/h 7.0 mph /  11.3 km/h 89 % 0.00 in /  0 mm 0 W/m2
01:39 43.9 °F /  6.6 °C 40.8 °F /  4.9 °C 29.64 in /  1003.6 hPa West 5.0 mph /  8 km/h 7.0 mph /  11.3 km/h 89 % 0.00 in /  0 mm 0 W/m2
01:44 43.7 °F /  6.5 °C 40.4 °F /  4.7 °C 29.64 in /  1003.6 hPa WNW 5.0 mph /  8 km/h 8.0 mph /  12.9 km/h 88 % 0.00 in /  0 mm 0 W/m2
01:49 43.7 °F /  6.5 °C 40.7 °F /  4.8 °C 29.64 in /  1003.6 hPa WNW 3.0 mph /  4.8 km/h 7.0 mph /  11.3 km/h 89 % 0.00 in /  0 mm 0 W/m2
01:54 43.7 °F /  6.5 °C 40.7 °F /  4.8 °C 29.64 in /  1003.6 hPa WNW 7.0 mph /  11.3 km/h 11.0 mph /  17.7 km/h 89 % 0.00 in /  0 mm 0 W/m2
01:59 43.9 °F /  6.6 °C 40.8 °F /  4.9 °C 29.64 in /  1003.6 hPa WNW 8.0 mph /  12.9 km/h 13.0 mph /  20.9 km/h 89 % 0.00 in /  0 mm 0 W/m2
02:04 43.9 °F /  6.6 °C 40.8 °F /  4.9 °C 29.64 in /  1003.6 hPa West 7.0 mph /  11.3 km/h 14.0 mph /  22.5 km/h 89 % 0.00 in /  0 mm 0 W/m2
02:09 43.9 °F /  6.6 °C 40.8 °F /  4.9 °C 29.64 in /  1003.6 hPa West 5.0 mph /  8 km/h 9.0 mph /  14.5 km/h 89 % 0.00 in /  0 mm 0 W/m2
02:14 43.9 °F /  6.6 °C 40.8 °F /  4.9 °C 29.64 in /  1003.6 hPa WNW 4.0 mph /  6.4 km/h 9.0 mph /  14.5 km/h 89 % 0.00 in /  0 mm 0 W/m2
02:19 43.7 °F /  6.5 °C 40.7 °F /  4.8 °C 29.64 in /  1003.6 hPa WNW 3.0 mph /  4.8 km/h 6.0 mph /  9.7 km/h 89 % 0.00 in /  0 mm 0 W/m2
02:24 43.5 °F /  6.4 °C 40.5 °F /  4.7 °C 29.65 in /  1003.9 hPa WNW 3.0 mph /  4.8 km/h 5.0 mph /  8 km/h 89 % 0.00 in /  0 mm 0 W/m2
02:29 43.3 °F /  6.3 °C 40.3 °F /  4.6 °C 29.65 in /  1003.9 hPa WNW 4.0 mph /  6.4 km/h 7.0 mph /  11.3 km/h 89 % 0.00 in /  0 mm 0 W/m2
02:34 43.2 °F /  6.2 °C 40.1 °F /  4.5 °C 29.65 in /  1003.9 hPa NW 3.0 mph /  4.8 km/h 6.0 mph /  9.7 km/h 89 % 0.00 in /  0 mm 0 W/m2
02:39 43.0 °F /  6.1 °C 40.2 °F /  4.6 °C 29.65 in /  1003.9 hPa WNW 4.0 mph /  6.4 km/h 7.0 mph /  11.3 km/h 90 % 0.00 in /  0 mm 0 W/m2
02:44 43.0 °F /  6.1 °C 40.2 °F /  4.6 °C 29.65 in /  1003.9 hPa WNW 4.0 mph /  6.4 km/h 6.0 mph /  9.7 km/h 90 % 0.00 in /  0 mm 0 W/m2
02:49 42.8 °F /  6 °C 40.1 °F /  4.5 °C 29.65 in /  1003.9 hPa WNW 5.0 mph /  8 km/h 11.0 mph /  17.7 km/h 90 % 0.00 in /  0 mm 0 W/m2
02:54 42.8 °F /  6 °C 40.1 °F /  4.5 °C 29.65 in /  1003.9 hPa NW 7.0 mph /  11.3 km/h 10.0 mph /  16.1 km/h 90 % 0.00 in /  0 mm 0 W/m2
02:59 42.8 °F /  6 °C 40.1 °F /  4.5 °C 29.65 in /  1003.9 hPa WNW 6.0 mph /  9.7 km/h 8.0 mph /  12.9 km/h 90 % 0.00 in /  0 mm 0 W/m2
03:04 42.8 °F /  6 °C 40.1 °F /  4.5 °C 29.66 in /  1004.3 hPa WNW 5.0 mph /  8 km/h 8.0 mph /  12.9 km/h 90 % 0.00 in /  0 mm 0 W/m2
03:09 42.8 °F /  6 °C 40.1 °F /  4.5 °C 29.66 in /  1004.3 hPa WNW 2.0 mph /  3.2 km/h 6.0 mph /  9.7 km/h 90 % 0.00 in /  0 mm 0 W/m2
03:14 42.8 °F /  6 °C 40.1 °F /  4.5 °C 29.67 in /  1004.6 hPa West 3.0 mph /  4.8 km/h 5.0 mph /  8 km/h 90 % 0.00 in /  0 mm 0 W/m2
03:19 42.6 °F /  5.9 °C 39.6 °F /  4.2 °C 29.67 in /  1004.6 hPa WNW 5.0 mph /  8 km/h 9.0 mph /  14.5 km/h 89 % 0.00 in /  0 mm 0 W/m2
03:24 42.6 °F /  5.9 °C 39.9 °F /  4.4 °C 29.66 in /  1004.3 hPa WNW 6.0 mph /  9.7 km/h 11.0 mph /  17.7 km/h 90 % 0.00 in /  0 mm 0 W/m2
03:29 42.8 °F /  6 °C 40.1 °F /  4.5 °C 29.66 in /  1004.3 hPa WNW 7.0 mph /  11.3 km/h 11.0 mph /  17.7 km/h 90 % 0.00 in /  0 mm 0 W/m2
03:34 42.8 °F /  6 °C 39.8 °F /  4.3 °C 29.66 in /  1004.3 hPa WNW 8.0 mph /  12.9 km/h 12.0 mph /  19.3 km/h 89 % 0.00 in /  0 mm 0 W/m2
03:39 43.0 °F /  6.1 °C 40.0 °F /  4.4 °C 29.66 in /  1004.3 hPa WNW 9.0 mph /  14.5 km/h 15.0 mph /  24.1 km/h 89 % 0.00 in /  0 mm 0 W/m2
03:44 43.0 °F /  6.1 °C 40.0 °F /  4.4 °C 29.66 in /  1004.3 hPa WNW 5.0 mph /  8 km/h 9.0 mph /  14.5 km/h 89 % 0.00 in /  0 mm 0 W/m2
03:49 43.2 °F /  6.2 °C 39.8 °F /  4.3 °C 29.67 in /  1004.6 hPa West 4.0 mph /  6.4 km/h 7.0 mph /  11.3 km/h 88 % 0.00 in /  0 mm 0 W/m2
03:54 43.2 °F /  6.2 °C 39.8 °F /  4.3 °C 29.67 in /  1004.6 hPa West 4.0 mph /  6.4 km/h 9.0 mph /  14.5 km/h 88 % 0.00 in /  0 mm 0 W/m2
03:59 43.2 °F /  6.2 °C 39.8 °F /  4.3 °C 29.67 in /  1004.6 hPa WNW 3.0 mph /  4.8 km/h 6.0 mph /  9.7 km/h 88 % 0.00 in /  0 mm 0 W/m2
04:05 43.2 °F /  6.2 °C 39.8 °F /  4.3 °C 29.67 in /  1004.6 hPa WNW 4.0 mph /  6.4 km/h 9.0 mph /  14.5 km/h 88 % 0.00 in /  0 mm 0 W/m2
04:09 43.2 °F /  6.2 °C 39.8 °F /  4.3 °C 29.67 in /  1004.6 hPa West 4.0 mph /  6.4 km/h 11.0 mph /  17.7 km/h 88 % 0.00 in /  0 mm 0 W/m2
04:14 43.2 °F /  6.2 °C 39.8 °F /  4.3 °C 29.67 in /  1004.6 hPa West 5.0 mph /  8 km/h 8.0 mph /  12.9 km/h 88 % 0.00 in /  0 mm 0 W/m2
04:20 43.2 °F /  6.2 °C 39.8 °F /  4.3 °C 29.67 in /  1004.6 hPa WSW 3.0 mph /  4.8 km/h 9.0 mph /  14.5 km/h 88 % 0.00 in /  0 mm 0 W/m2
04:25 43.2 °F /  6.2 °C 39.8 °F /  4.3 °C 29.67 in /  1004.6 hPa WSW 1.0 mph /  1.6 km/h 6.0 mph /  9.7 km/h 88 % 0.00 in /  0 mm 0 W/m2
04:30 43.2 °F /  6.2 °C 39.8 °F /  4.3 °C 29.67 in /  1004.6 hPa WNW 4.0 mph /  6.4 km/h 9.0 mph /  14.5 km/h 88 % 0.00 in /  0 mm 0 W/m2
04:35 43.2 °F /  6.2 °C 39.8 °F /  4.3 °C 29.67 in /  1004.6 hPa WNW 5.0 mph /  8 km/h 10.0 mph /  16.1 km/h 88 % 0.00 in /  0 mm 0 W/m2
04:40 43.2 °F /  6.2 °C 39.8 °F /  4.3 °C 29.67 in /  1004.6 hPa West 5.0 mph /  8 km/h 8.0 mph /  12.9 km/h 88 % 0.00 in /  0 mm 0 W/m2
04:45 43.2 °F /  6.2 °C 39.8 °F /  4.3 °C 29.67 in /  1004.6 hPa West 6.0 mph /  9.7 km/h 9.0 mph /  14.5 km/h 88 % 0.00 in /  0 mm 0 W/m2
04:50 43.2 °F /  6.2 °C 39.8 °F /  4.3 °C 29.67 in /  1004.6 hPa WNW 6.0 mph /  9.7 km/h 11.0 mph /  17.7 km/h 88 % 0.00 in /  0 mm 0 W/m2
04:55 43.2 °F /  6.2 °C 39.8 °F /  4.3 °C 29.67 in /  1004.6 hPa West 7.0 mph /  11.3 km/h 10.0 mph /  16.1 km/h 88 % 0.00 in /  0 mm 0 W/m2
05:05 43.0 °F /  6.1 °C 39.7 °F /  4.3 °C 29.68 in /  1005 hPa WSW 1.0 mph /  1.6 km/h 5.0 mph /  8 km/h 88 % 0.00 in /  0 mm 0 W/m2
05:15 43.0 °F /  6.1 °C 39.7 °F /  4.3 °C 29.68 in /  1005 hPa Calm   1.0 mph /  1.6 km/h 88 % 0.00 in /  0 mm 0 W/m2
05:20 43.0 °F /  6.1 °C 39.7 °F /  4.3 °C 29.68 in /  1005 hPa West 1.0 mph /  1.6 km/h 2.0 mph /  3.2 km/h 88 % 0.00 in /  0 mm 0 W/m2
05:25 43.0 °F /  6.1 °C 39.7 °F /  4.3 °C 29.68 in /  1005 hPa WSW 1.0 mph /  1.6 km/h 4.0 mph /  6.4 km/h 88 % 0.00 in /  0 mm 0 W/m2
05:35 43.0 °F /  6.1 °C 40.0 °F /  4.4 °C 29.68 in /  1005 hPa WNW 6.0 mph /  9.7 km/h 11.0 mph /  17.7 km/h 89 % 0.00 in /  0 mm 0 W/m2
05:40 43.2 °F /  6.2 °C 40.1 °F /  4.5 °C 29.68 in /  1005 hPa WNW 8.0 mph /  12.9 km/h 12.0 mph /  19.3 km/h 89 % 0.00 in /  0 mm 0 W/m2
05:45 43.2 °F /  6.2 °C 40.1 °F /  4.5 °C 29.68 in /  1005 hPa West 8.0 mph /  12.9 km/h 12.0 mph /  19.3 km/h 89 % 0.00 in /  0 mm 0 W/m2
05:50 43.3 °F /  6.3 °C 40.3 °F /  4.6 °C 29.68 in /  1005 hPa West 8.0 mph /  12.9 km/h 11.0 mph /  17.7 km/h 89 % 0.00 in /  0 mm 0 W/m2
05:55 43.3 °F /  6.3 °C 40.3 °F /  4.6 °C 29.69 in /  1005.3 hPa West 8.0 mph /  12.9 km/h 14.0 mph /  22.5 km/h 89 % 0.00 in /  0 mm 0 W/m2
06:00 43.3 °F /  6.3 °C 40.0 °F /  4.4 °C 29.69 in /  1005.3 hPa West 6.0 mph /  9.7 km/h 9.0 mph /  14.5 km/h 88 % 0.00 in /  0 mm 0 W/m2
06:08 43.3 °F /  6.3 °C 40.3 °F /  4.6 °C 29.69 in /  1005.3 hPa West 7.0 mph /  11.3 km/h 13.0 mph /  20.9 km/h 89 % 0.00 in /  0 mm 0 W/m2
06:13 43.3 °F /  6.3 °C 40.0 °F /  4.4 °C 29.69 in /  1005.3 hPa West 5.0 mph /  8 km/h 8.0 mph /  12.9 km/h 88 % 0.00 in /  0 mm 0 W/m2
06:18 43.3 °F /  6.3 °C 40.0 °F /  4.4 °C 29.69 in /  1005.3 hPa West 2.0 mph /  3.2 km/h 6.0 mph /  9.7 km/h 88 % 0.00 in /  0 mm 0 W/m2
06:23 43.2 °F /  6.2 °C 39.8 °F /  4.3 °C 29.69 in /  1005.3 hPa West 5.0 mph /  8 km/h 8.0 mph /  12.9 km/h 88 % 0.00 in /  0 mm 0 W/m2
06:28 43.2 °F /  6.2 °C 40.1 °F /  4.5 °C 29.69 in /  1005.3 hPa WSW 3.0 mph /  4.8 km/h 6.0 mph /  9.7 km/h 89 % 0.00 in /  0 mm 0 W/m2
06:33 43.2 °F /  6.2 °C 39.8 °F /  4.3 °C 29.70 in /  1005.6 hPa WSW 2.0 mph /  3.2 km/h 6.0 mph /  9.7 km/h 88 % 0.00 in /  0 mm 0 W/m2
06:38 43.0 °F /  6.1 °C 40.0 °F /  4.4 °C 29.70 in /  1005.6 hPa WSW 2.0 mph /  3.2 km/h 6.0 mph /  9.7 km/h 89 % 0.00 in /  0 mm 0 W/m2
06:48 43.0 °F /  6.1 °C 40.0 °F /  4.4 °C 29.70 in /  1005.6 hPa Calm   1.0 mph /  1.6 km/h 89 % 0.00 in /  0 mm 0 W/m2
06:58 42.6 °F /  5.9 °C 39.6 °F /  4.2 °C 29.70 in /  1005.6 hPa West 3.0 mph /  4.8 km/h 7.0 mph /  11.3 km/h 89 % 0.00 in /  0 mm 0 W/m2
07:03 42.4 °F /  5.8 °C 39.4 °F /  4.1 °C 29.70 in /  1005.6 hPa West 5.0 mph /  8 km/h 7.0 mph /  11.3 km/h 89 % 0.00 in /  0 mm 0 W/m2
07:08 42.4 °F /  5.8 °C 39.4 °F /  4.1 °C 29.70 in /  1005.6 hPa WSW 5.0 mph /  8 km/h 9.0 mph /  14.5 km/h 89 % 0.00 in /  0 mm 0 W/m2
07:13 42.4 °F /  5.8 °C 39.4 °F /  4.1 °C 29.70 in /  1005.6 hPa West 6.0 mph /  9.7 km/h 11.0 mph /  17.7 km/h 89 % 0.00 in /  0 mm 0 W/m2
07:18 42.4 °F /  5.8 °C 39.4 °F /  4.1 °C 29.71 in /  1006 hPa West 5.0 mph /  8 km/h 9.0 mph /  14.5 km/h 89 % 0.00 in /  0 mm 0 W/m2
07:28 42.6 °F /  5.9 °C 39.6 °F /  4.2 °C 29.71 in /  1006 hPa West 3.0 mph /  4.8 km/h 6.0 mph /  9.7 km/h 89 % 0.00 in /  0 mm 0 W/m2
07:38 42.6 °F /  5.9 °C 39.6 °F /  4.2 °C 29.71 in /  1006 hPa West 4.0 mph /  6.4 km/h 9.0 mph /  14.5 km/h 89 % 0.00 in /  0 mm 0 W/m2
07:43 42.6 °F /  5.9 °C 39.6 °F /  4.2 °C 29.71 in /  1006 hPa West 4.0 mph /  6.4 km/h 8.0 mph /  12.9 km/h 89 % 0.00 in /  0 mm 0 W/m2
07:53 42.6 °F /  5.9 °C 39.9 °F /  4.4 °C 29.72 in /  1006.3 hPa West 3.0 mph /  4.8 km/h 6.0 mph /  9.7 km/h 90 % 0.00 in /  0 mm 0 W/m2
07:59 42.6 °F /  5.9 °C 39.9 °F /  4.4 °C 29.72 in /  1006.3 hPa WSW 2.0 mph /  3.2 km/h 7.0 mph /  11.3 km/h 90 % 0.00 in /  0 mm 0 W/m2
08:04 42.4 °F /  5.8 °C 39.4 °F /  4.1 °C 29.72 in /  1006.3 hPa Calm   1.0 mph /  1.6 km/h 89 % 0.00 in /  0 mm 0 W/m2
08:09 42.4 °F /  5.8 °C 39.4 °F /  4.1 °C 29.73 in /  1006.7 hPa Calm   2.0 mph /  3.2 km/h 89 % 0.00 in /  0 mm 5 W/m2
08:14 42.3 °F /  5.7 °C 39.2 °F /  4 °C 29.73 in /  1006.7 hPa WSW 3.0 mph /  4.8 km/h 9.0 mph /  14.5 km/h 89 % 0.00 in /  0 mm 9 W/m2
08:19 42.3 °F /  5.7 °C 39.5 °F /  4.2 °C 29.73 in /  1006.7 hPa Calm   1.0 mph /  1.6 km/h 90 % 0.00 in /  0 mm 12 W/m2
08:24 42.3 °F /  5.7 °C 39.5 °F /  4.2 °C 29.73 in /  1006.7 hPa West 2.0 mph /  3.2 km/h 4.0 mph /  6.4 km/h 90 % 0.00 in /  0 mm 16 W/m2
08:29 42.1 °F /  5.6 °C 39.4 °F /  4.1 °C 29.73 in /  1006.7 hPa Calm   1.0 mph /  1.6 km/h 90 % 0.00 in /  0 mm 23 W/m2
08:34 42.3 °F /  5.7 °C 39.5 °F /  4.2 °C 29.73 in /  1006.7 hPa West 3.0 mph /  4.8 km/h 9.0 mph /  14.5 km/h 90 % 0.00 in /  0 mm 32 W/m2
08:44 42.6 °F /  5.9 °C 40.2 °F /  4.6 °C 29.73 in /  1006.7 hPa WNW 8.0 mph /  12.9 km/h 12.0 mph /  19.3 km/h 91 % 0.00 in /  0 mm 47 W/m2
08:54 43.3 °F /  6.3 °C 40.6 °F /  4.8 °C 29.74 in /  1007 hPa WNW 7.0 mph /  11.3 km/h 12.0 mph /  19.3 km/h 90 % 0.00 in /  0 mm 35 W/m2
08:59 43.3 °F /  6.3 °C 40.6 °F /  4.8 °C 29.74 in /  1007 hPa WNW 8.0 mph /  12.9 km/h 12.0 mph /  19.3 km/h 90 % 0.00 in /  0 mm 44 W/m2
09:04 43.5 °F /  6.4 °C 40.8 °F /  4.9 °C 29.74 in /  1007 hPa West 6.0 mph /  9.7 km/h 10.0 mph /  16.1 km/h 90 % 0.00 in /  0 mm 56 W/m2
09:09 43.7 °F /  6.5 °C 41.0 °F /  5 °C 29.75 in /  1007.3 hPa West 9.0 mph /  14.5 km/h 15.0 mph /  24.1 km/h 90 % 0.00 in /  0 mm 37 W/m2
09:19 43.9 °F /  6.6 °C 40.8 °F /  4.9 °C 29.75 in /  1007.3 hPa WNW 8.0 mph /  12.9 km/h 12.0 mph /  19.3 km/h 89 % 0.00 in /  0 mm 35 W/m2
09:24 43.9 °F /  6.6 °C 40.8 °F /  4.9 °C 29.75 in /  1007.3 hPa WNW 6.0 mph /  9.7 km/h 10.0 mph /  16.1 km/h 89 % 0.00 in /  0 mm 49 W/m2
09:29 43.9 °F /  6.6 °C 40.8 °F /  4.9 °C 29.76 in /  1007.7 hPa WNW 8.0 mph /  12.9 km/h 11.0 mph /  17.7 km/h 89 % 0.00 in /  0 mm 98 W/m2
09:34 44.1 °F /  6.7 °C 41.0 °F /  5 °C 29.76 in /  1007.7 hPa West 5.0 mph /  8 km/h 10.0 mph /  16.1 km/h 89 % 0.00 in /  0 mm 151 W/m2
09:44 44.8 °F /  7.1 °C 41.7 °F /  5.4 °C 29.76 in /  1007.7 hPa WNW 8.0 mph /  12.9 km/h 14.0 mph /  22.5 km/h 89 % 0.00 in /  0 mm 132 W/m2
09:49 45.0 °F /  7.2 °C 41.6 °F /  5.3 °C 29.75 in /  1007.3 hPa WNW 13.0 mph /  20.9 km/h 21.0 mph /  33.8 km/h 88 % 0.00 in /  0 mm 156 W/m2
09:54 45.1 °F /  7.3 °C 41.5 °F /  5.3 °C 29.75 in /  1007.3 hPa WNW 12.0 mph /  19.3 km/h 20.0 mph /  32.2 km/h 87 % 0.00 in /  0 mm 134 W/m2
09:59 45.1 °F /  7.3 °C 41.5 °F /  5.3 °C 29.75 in /  1007.3 hPa WNW 13.0 mph /  20.9 km/h 23.0 mph /  37 km/h 87 % 0.00 in /  0 mm 130 W/m2
10:04 45.1 °F /  7.3 °C 41.5 °F /  5.3 °C 29.75 in /  1007.3 hPa West 13.0 mph /  20.9 km/h 23.0 mph /  37 km/h 87 % 0.00 in /  0 mm 114 W/m2
10:09 45.1 °F /  7.3 °C 41.5 °F /  5.3 °C 29.75 in /  1007.3 hPa WNW 10.0 mph /  16.1 km/h 19.0 mph /  30.6 km/h 87 % 0.00 in /  0 mm 118 W/m2
10:14 45.0 °F /  7.2 °C 41.3 °F /  5.2 °C 29.75 in /  1007.3 hPa WNW 11.0 mph /  17.7 km/h 19.0 mph /  30.6 km/h 87 % 0.00 in /  0 mm 125 W/m2
10:19 45.0 °F /  7.2 °C 41.3 °F /  5.2 °C 29.76 in /  1007.7 hPa WNW 13.0 mph /  20.9 km/h 23.0 mph /  37 km/h 87 % 0.00 in /  0 mm 113 W/m2
10:24 45.0 °F /  7.2 °C 41.3 °F /  5.2 °C 29.76 in /  1007.7 hPa WNW 12.0 mph /  19.3 km/h 20.0 mph /  32.2 km/h 87 % 0.00 in /  0 mm 130 W/m2
10:29 45.0 °F /  7.2 °C 41.3 °F /  5.2 °C 29.77 in /  1008 hPa WNW 13.0 mph /  20.9 km/h 19.0 mph /  30.6 km/h 87 % 0.00 in /  0 mm 146 W/m2
10:34 45.0 °F /  7.2 °C 41.3 °F /  5.2 °C 29.77 in /  1008 hPa WNW 15.0 mph /  24.1 km/h 23.0 mph /  37 km/h 87 % 0.00 in /  0 mm 132 W/m2
10:44 45.1 °F /  7.3 °C 41.5 °F /  5.3 °C 29.77 in /  1008 hPa WNW 17.0 mph /  27.4 km/h 26.0 mph /  41.8 km/h 87 % 0.00 in /  0 mm 104 W/m2
10:49 45.1 °F /  7.3 °C 41.5 °F /  5.3 °C 29.76 in /  1007.7 hPa WNW 15.0 mph /  24.1 km/h 23.0 mph /  37 km/h 87 % 0.00 in /  0 mm 120 W/m2
10:55 45.1 °F /  7.3 °C 41.5 °F /  5.3 °C 29.77 in /  1008 hPa WNW 14.0 mph /  22.5 km/h 22.0 mph /  35.4 km/h 87 % 0.00 in /  0 mm 171 W/m2
11:00 45.3 °F /  7.4 °C 41.7 °F /  5.4 °C 29.77 in /  1008 hPa WNW 13.0 mph /  20.9 km/h 20.0 mph /  32.2 km/h 87 % 0.00 in /  0 mm 142 W/m2
11:05 45.3 °F /  7.4 °C 41.7 °F /  5.4 °C 29.77 in /  1008 hPa WNW 13.0 mph /  20.9 km/h 23.0 mph /  37 km/h 87 % 0.00 in /  0 mm 111 W/m2
11:10 45.3 °F /  7.4 °C 41.4 °F /  5.2 °C 29.77 in /  1008 hPa WNW 17.0 mph /  27.4 km/h 26.0 mph /  41.8 km/h 86 % 0.00 in /  0 mm 98 W/m2
11:15 45.3 °F /  7.4 °C 41.4 °F /  5.2 °C 29.77 in /  1008 hPa West 17.0 mph /  27.4 km/h 26.0 mph /  41.8 km/h 86 % 0.00 in /  0 mm 167 W/m2
11:20 45.5 °F /  7.5 °C 41.6 °F /  5.3 °C 29.77 in /  1008 hPa WNW 18.0 mph /  29 km/h 26.0 mph /  41.8 km/h 86 % 0.00 in /  0 mm 288 W/m2
11:25 46.0 °F /  7.8 °C 42.1 °F /  5.6 °C 29.77 in /  1008 hPa West 17.0 mph /  27.4 km/h 29.0 mph /  46.7 km/h 86 % 0.00 in /  0 mm 353 W/m2
11:45 46.8 °F /  8.2 °C 42.2 °F /  5.7 °C 29.77 in /  1008 hPa West 17.0 mph /  27.4 km/h 26.0 mph /  41.8 km/h 84 % 0.00 in /  0 mm 160 W/m2
11:50 46.8 °F /  8.2 °C 42.2 °F /  5.7 °C 29.77 in /  1008 hPa WNW 18.0 mph /  29 km/h 26.0 mph /  41.8 km/h 84 % 0.00 in /  0 mm 148 W/m2
11:55 46.6 °F /  8.1 °C 42.0 °F /  5.6 °C 29.78 in /  1008.4 hPa WNW 19.0 mph /  30.6 km/h 26.0 mph /  41.8 km/h 84 % 0.00 in /  0 mm 172 W/m2
12:00 46.6 °F /  8.1 °C 42.0 °F /  5.6 °C 29.78 in /  1008.4 hPa West 20.0 mph /  32.2 km/h 28.0 mph /  45.1 km/h 84 % 0.00 in /  0 mm 339 W/m2
12:05 46.6 °F /  8.1 °C 42.0 °F /  5.6 °C 29.78 in /  1008.4 hPa WNW 18.0 mph /  29 km/h 25.0 mph /  40.2 km/h 84 % 0.00 in /  0 mm 134 W/m2
12:10 46.4 °F /  8 °C 41.8 °F /  5.4 °C 29.78 in /  1008.4 hPa West 16.0 mph /  25.7 km/h 26.0 mph /  41.8 km/h 84 % 0.00 in /  0 mm 123 W/m2
12:15 46.2 °F /  7.9 °C 42.0 °F /  5.6 °C 29.80 in /  1009 hPa West 16.0 mph /  25.7 km/h 23.0 mph /  37 km/h 85 % 0.00 in /  0 mm 105 W/m2
12:20 46.2 °F /  7.9 °C 42.0 °F /  5.6 °C 29.80 in /  1009 hPa West 16.0 mph /  25.7 km/h 23.0 mph /  37 km/h 85 % 0.00 in /  0 mm 81 W/m2
12:25 46.0 °F /  7.8 °C 41.8 °F /  5.4 °C 29.81 in /  1009.4 hPa WNW 14.0 mph /  22.5 km/h 25.0 mph /  40.2 km/h 85 % 0.00 in /  0 mm 70 W/m2
12:30 46.0 °F /  7.8 °C 42.1 °F /  5.6 °C 29.81 in /  1009.4 hPa West 12.0 mph /  19.3 km/h 18.0 mph /  29 km/h 86 % 0.00 in /  0 mm 77 W/m2
12:35 46.0 °F /  7.8 °C 42.1 °F /  5.6 °C 29.81 in /  1009.4 hPa WNW 9.0 mph /  14.5 km/h 16.0 mph /  25.7 km/h 86 % 0.00 in /  0 mm 104 W/m2
12:40 46.0 °F /  7.8 °C 42.1 °F /  5.6 °C 29.82 in /  1009.7 hPa West 10.0 mph /  16.1 km/h 18.0 mph /  29 km/h 86 % 0.00 in /  0 mm 114 W/m2
12:45 46.0 °F /  7.8 °C 42.1 °F /  5.6 °C 29.82 in /  1009.7 hPa West 11.0 mph /  17.7 km/h 18.0 mph /  29 km/h 86 % 0.00 in /  0 mm 97 W/m2
12:50 46.2 °F /  7.9 °C 42.6 °F /  5.9 °C 29.83 in /  1010 hPa West 11.0 mph /  17.7 km/h 22.0 mph /  35.4 km/h 87 % 0.00 in /  0 mm 135 W/m2
12:55 46.2 °F /  7.9 °C 42.3 °F /  5.7 °C 29.83 in /  1010 hPa West 13.0 mph /  20.9 km/h 19.0 mph /  30.6 km/h 86 % 0.00 in /  0 mm 137 W/m2
13:00 46.2 °F /  7.9 °C 42.3 °F /  5.7 °C 29.83 in /  1010 hPa West 13.0 mph /  20.9 km/h 19.0 mph /  30.6 km/h 86 % 0.00 in /  0 mm 118 W/m2
13:05 46.2 °F /  7.9 °C 42.3 °F /  5.7 °C 29.84 in /  1010.4 hPa WNW 12.0 mph /  19.3 km/h 18.0 mph /  29 km/h 86 % 0.00 in /  0 mm 102 W/m2
13:11 46.2 °F /  7.9 °C 42.6 °F /  5.9 °C 29.84 in /  1010.4 hPa West 10.0 mph /  16.1 km/h 15.0 mph /  24.1 km/h 87 % 0.00 in /  0 mm 118 W/m2
13:16 46.2 °F /  7.9 °C 42.6 °F /  5.9 °C 29.84 in /  1010.4 hPa West 9.0 mph /  14.5 km/h 14.0 mph /  22.5 km/h 87 % 0.00 in /  0 mm 109 W/m2
13:21 46.2 °F /  7.9 °C 42.6 °F /  5.9 °C 29.85 in /  1010.7 hPa West 10.0 mph /  16.1 km/h 15.0 mph /  24.1 km/h 87 % 0.00 in /  0 mm 76 W/m2
13:36 46.9 °F /  8.3 °C 43.3 °F /  6.3 °C 29.85 in /  1010.7 hPa WNW 11.0 mph /  17.7 km/h 20.0 mph /  32.2 km/h 87 % 0.00 in /  0 mm 271 W/m2
13:41 47.1 °F /  8.4 °C 43.4 °F /  6.3 °C 29.85 in /  1010.7 hPa WNW 12.0 mph /  19.3 km/h 20.0 mph /  32.2 km/h 87 % 0.00 in /  0 mm 155 W/m2
13:46 47.1 °F /  8.4 °C 43.1 °F /  6.2 °C 29.85 in /  1010.7 hPa WNW 9.0 mph /  14.5 km/h 16.0 mph /  25.7 km/h 86 % 0.00 in /  0 mm 306 W/m2
13:51 47.5 °F /  8.6 °C 43.5 °F /  6.4 °C 29.85 in /  1010.7 hPa WNW 9.0 mph /  14.5 km/h 15.0 mph /  24.1 km/h 86 % 0.00 in /  0 mm 239 W/m2
14:01 47.7 °F /  8.7 °C 43.4 °F /  6.3 °C 29.85 in /  1010.7 hPa West 10.0 mph /  16.1 km/h 16.0 mph /  25.7 km/h 85 % 0.00 in /  0 mm 251 W/m2
14:06 47.8 °F /  8.8 °C 43.5 °F /  6.4 °C 29.86 in /  1011.1 hPa WNW 11.0 mph /  17.7 km/h 14.0 mph /  22.5 km/h 85 % 0.00 in /  0 mm 371 W/m2
14:11 47.8 °F /  8.8 °C 43.2 °F /  6.2 °C 29.86 in /  1011.1 hPa WNW 10.0 mph /  16.1 km/h 16.0 mph /  25.7 km/h 84 % 0.00 in /  0 mm 135 W/m2
14:16 47.8 °F /  8.8 °C 43.2 °F /  6.2 °C 29.86 in /  1011.1 hPa West 10.0 mph /  16.1 km/h 15.0 mph /  24.1 km/h 84 % 0.00 in /  0 mm 123 W/m2
14:21 48.0 °F /  8.9 °C 43.4 °F /  6.3 °C 29.86 in /  1011.1 hPa West 15.0 mph /  24.1 km/h 20.0 mph /  32.2 km/h 84 % 0.00 in /  0 mm 339 W/m2
14:31 48.6 °F /  9.2 °C 43.3 °F /  6.3 °C 29.86 in /  1011.1 hPa WNW 13.0 mph /  20.9 km/h 20.0 mph /  32.2 km/h 82 % 0.00 in /  0 mm 148 W/m2
14:36 48.6 °F /  9.2 °C 43.3 °F /  6.3 °C 29.87 in /  1011.4 hPa West 15.0 mph /  24.1 km/h 20.0 mph /  32.2 km/h 82 % 0.00 in /  0 mm 79 W/m2
14:41 48.0 °F /  8.9 °C 42.8 °F /  6 °C 29.87 in /  1011.4 hPa West 13.0 mph /  20.9 km/h 20.0 mph /  32.2 km/h 82 % 0.00 in /  0 mm 47 W/m2
14:46 47.8 °F /  8.8 °C 42.9 °F /  6.1 °C 29.87 in /  1011.4 hPa West 11.0 mph /  17.7 km/h 20.0 mph /  32.2 km/h 83 % 0.00 in /  0 mm 200 W/m2
14:51 47.8 °F /  8.8 °C 42.9 °F /  6.1 °C 29.87 in /  1011.4 hPa West 11.0 mph /  17.7 km/h 18.0 mph /  29 km/h 83 % 0.00 in /  0 mm 148 W/m2
14:56 47.7 °F /  8.7 °C 42.4 °F /  5.8 °C 29.87 in /  1011.4 hPa West 15.0 mph /  24.1 km/h 23.0 mph /  37 km/h 82 % 0.00 in /  0 mm 79 W/m2
15:01 47.5 °F /  8.6 °C 42.3 °F /  5.7 °C 29.87 in /  1011.4 hPa WNW 12.0 mph /  19.3 km/h 20.0 mph /  32.2 km/h 82 % 0.00 in /  0 mm 81 W/m2
15:06 47.3 °F /  8.5 °C 42.1 °F /  5.6 °C 29.88 in /  1011.7 hPa West 13.0 mph /  20.9 km/h 23.0 mph /  37 km/h 82 % 0.00 in /  0 mm 81 W/m2
15:11 47.1 °F /  8.4 °C 41.9 °F /  5.5 °C 29.88 in /  1011.7 hPa West 12.0 mph /  19.3 km/h 20.0 mph /  32.2 km/h 82 % 0.00 in /  0 mm 44 W/m2
15:16 46.9 °F /  8.3 °C 42.0 °F /  5.6 °C 29.88 in /  1011.7 hPa West 12.0 mph /  19.3 km/h 16.0 mph /  25.7 km/h 83 % 0.00 in /  0 mm 54 W/m2
15:21 46.9 °F /  8.3 °C 42.0 °F /  5.6 °C 29.88 in /  1011.7 hPa West 12.0 mph /  19.3 km/h 18.0 mph /  29 km/h 83 % 0.00 in /  0 mm 65 W/m2
15:26 46.8 °F /  8.2 °C 42.2 °F /  5.7 °C 29.89 in /  1012.1 hPa West 9.0 mph /  14.5 km/h 15.0 mph /  24.1 km/h 84 % 0.00 in /  0 mm 53 W/m2
15:31 46.8 °F /  8.2 °C 42.2 °F /  5.7 °C 29.89 in /  1012.1 hPa West 10.0 mph /  16.1 km/h 16.0 mph /  25.7 km/h 84 % 0.00 in /  0 mm 32 W/m2
15:36 46.6 °F /  8.1 °C 42.3 °F /  5.7 °C 29.89 in /  1012.1 hPa West 9.0 mph /  14.5 km/h 15.0 mph /  24.1 km/h 85 % 0.00 in /  0 mm 32 W/m2
15:41 46.4 °F /  8 °C 42.1 °F /  5.6 °C 29.89 in /  1012.1 hPa West 9.0 mph /  14.5 km/h 15.0 mph /  24.1 km/h 85 % 0.00 in /  0 mm 39 W/m2
15:46 46.2 °F /  7.9 °C 42.0 °F /  5.6 °C 29.89 in /  1012.1 hPa West 11.0 mph /  17.7 km/h 16.0 mph /  25.7 km/h 85 % 0.00 in /  0 mm 42 W/m2
15:51 46.0 °F /  7.8 °C 41.8 °F /  5.4 °C 29.89 in /  1012.1 hPa West 9.0 mph /  14.5 km/h 15.0 mph /  24.1 km/h 85 % 0.00 in /  0 mm 33 W/m2
15:56 45.9 °F /  7.7 °C 41.6 °F /  5.3 °C 29.89 in /  1012.1 hPa West 13.0 mph /  20.9 km/h 21.0 mph /  33.8 km/h 85 % 0.00 in /  0 mm 21 W/m2
16:01 45.7 °F /  7.6 °C 41.4 °F /  5.2 °C 29.90 in /  1012.4 hPa West 14.0 mph /  22.5 km/h 20.0 mph /  32.2 km/h 85 % 0.00 in /  0 mm 14 W/m2
16:06 45.7 °F /  7.6 °C 41.4 °F /  5.2 °C 29.90 in /  1012.4 hPa West 13.0 mph /  20.9 km/h 23.0 mph /  37 km/h 85 % 0.00 in /  0 mm 11 W/m2
16:12 45.7 °F /  7.6 °C 41.1 °F /  5.1 °C 29.90 in /  1012.4 hPa West 12.0 mph /  19.3 km/h 19.0 mph /  30.6 km/h 84 % 0.00 in /  0 mm 7 W/m2
16:17 45.7 °F /  7.6 °C 41.1 °F /  5.1 °C 29.90 in /  1012.4 hPa West 10.0 mph /  16.1 km/h 14.0 mph /  22.5 km/h 84 % 0.00 in /  0 mm 5 W/m2
16:22 45.7 °F /  7.6 °C 41.1 °F /  5.1 °C 29.91 in /  1012.8 hPa West 9.0 mph /  14.5 km/h 14.0 mph /  22.5 km/h 84 % 0.00 in /  0 mm 5 W/m2
16:27 45.7 °F /  7.6 °C 41.1 °F /  5.1 °C 29.91 in /  1012.8 hPa West 10.0 mph /  16.1 km/h 14.0 mph /  22.5 km/h 84 % 0.00 in /  0 mm 0 W/m2
16:32 45.7 °F /  7.6 °C 41.1 °F /  5.1 °C 29.91 in /  1012.8 hPa West 7.0 mph /  11.3 km/h 12.0 mph /  19.3 km/h 84 % 0.00 in /  0 mm 0 W/m2
16:37 45.7 °F /  7.6 °C 41.1 °F /  5.1 °C 29.91 in /  1012.8 hPa WSW 6.0 mph /  9.7 km/h 10.0 mph /  16.1 km/h 84 % 0.00 in /  0 mm 0 W/m2
16:42 45.5 °F /  7.5 °C 40.9 °F /  4.9 °C 29.91 in /  1012.8 hPa WSW 4.0 mph /  6.4 km/h 9.0 mph /  14.5 km/h 84 % 0.00 in /  0 mm 0 W/m2
16:47 45.3 °F /  7.4 °C 41.1 °F /  5.1 °C 29.91 in /  1012.8 hPa WSW 8.0 mph /  12.9 km/h 13.0 mph /  20.9 km/h 85 % 0.00 in /  0 mm 0 W/m2
16:52 45.3 °F /  7.4 °C 40.8 °F /  4.9 °C 29.91 in /  1012.8 hPa WSW 7.0 mph /  11.3 km/h 10.0 mph /  16.1 km/h 84 % 0.00 in /  0 mm 0 W/m2
16:57 45.3 °F /  7.4 °C 40.8 °F /  4.9 °C 29.91 in /  1012.8 hPa WSW 7.0 mph /  11.3 km/h 13.0 mph /  20.9 km/h 84 % 0.00 in /  0 mm 0 W/m2
17:02 45.1 °F /  7.3 °C 40.6 °F /  4.8 °C 29.92 in /  1013.1 hPa WSW 7.0 mph /  11.3 km/h 12.0 mph /  19.3 km/h 84 % 0.00 in /  0 mm 0 W/m2
17:07 45.1 °F /  7.3 °C 40.6 °F /  4.8 °C 29.92 in /  1013.1 hPa WSW 6.0 mph /  9.7 km/h 10.0 mph /  16.1 km/h 84 % 0.00 in /  0 mm 0 W/m2
17:12 45.3 °F /  7.4 °C 40.8 °F /  4.9 °C 29.92 in /  1013.1 hPa WSW 9.0 mph /  14.5 km/h 12.0 mph /  19.3 km/h 84 % 0.00 in /  0 mm 0 W/m2
17:17 45.3 °F /  7.4 °C 40.8 °F /  4.9 °C 29.92 in /  1013.1 hPa WSW 7.0 mph /  11.3 km/h 11.0 mph /  17.7 km/h 84 % 0.00 in /  0 mm 0 W/m2
17:22 45.3 °F /  7.4 °C 40.8 °F /  4.9 °C 29.93 in /  1013.4 hPa West 9.0 mph /  14.5 km/h 16.0 mph /  25.7 km/h 84 % 0.00 in /  0 mm 0 W/m2
17:27 45.3 °F /  7.4 °C 40.8 °F /  4.9 °C 29.93 in /  1013.4 hPa WSW 8.0 mph /  12.9 km/h 12.0 mph /  19.3 km/h 84 % 0.00 in /  0 mm 0 W/m2
17:32 45.1 °F /  7.3 °C 40.6 °F /  4.8 °C 29.93 in /  1013.4 hPa WSW 8.0 mph /  12.9 km/h 13.0 mph /  20.9 km/h 84 % 0.00 in /  0 mm 0 W/m2
17:37 45.1 °F /  7.3 °C 40.6 °F /  4.8 °C 29.93 in /  1013.4 hPa WSW 6.0 mph /  9.7 km/h 11.0 mph /  17.7 km/h 84 % 0.00 in /  0 mm 0 W/m2
17:42 45.1 °F /  7.3 °C 40.9 °F /  4.9 °C 29.94 in /  1013.8 hPa WSW 7.0 mph /  11.3 km/h 12.0 mph /  19.3 km/h 85 % 0.00 in /  0 mm 0 W/m2
17:47 45.0 °F /  7.2 °C 40.7 °F /  4.8 °C 29.94 in /  1013.8 hPa WSW 10.0 mph /  16.1 km/h 14.0 mph /  22.5 km/h 85 % 0.00 in /  0 mm 0 W/m2
17:52 45.0 °F /  7.2 °C 40.7 °F /  4.8 °C 29.94 in /  1013.8 hPa WSW 10.0 mph /  16.1 km/h 15.0 mph /  24.1 km/h 85 % 0.00 in /  0 mm 0 W/m2
17:57 45.0 °F /  7.2 °C 40.7 °F /  4.8 °C 29.95 in /  1014.1 hPa WSW 8.0 mph /  12.9 km/h 15.0 mph /  24.1 km/h 85 % 0.00 in /  0 mm 0 W/m2
18:02 45.0 °F /  7.2 °C 40.7 °F /  4.8 °C 29.95 in /  1014.1 hPa WSW 9.0 mph /  14.5 km/h 14.0 mph /  22.5 km/h 85 % 0.00 in /  0 mm 0 W/m2
18:07 45.0 °F /  7.2 °C 40.4 °F /  4.7 °C 29.94 in /  1013.8 hPa WSW 11.0 mph /  17.7 km/h 20.0 mph /  32.2 km/h 84 % 0.00 in /  0 mm 0 W/m2
18:12 45.0 °F /  7.2 °C 40.4 °F /  4.7 °C 29.94 in /  1013.8 hPa WSW 11.0 mph /  17.7 km/h 19.0 mph /  30.6 km/h 84 % 0.00 in /  0 mm 0 W/m2
18:17 45.0 °F /  7.2 °C 40.4 °F /  4.7 °C 29.94 in /  1013.8 hPa WSW 11.0 mph /  17.7 km/h 15.0 mph /  24.1 km/h 84 % 0.00 in /  0 mm 0 W/m2
18:22 45.0 °F /  7.2 °C 40.4 °F /  4.7 °C 29.94 in /  1013.8 hPa WSW 12.0 mph /  19.3 km/h 18.0 mph /  29 km/h 84 % 0.00 in /  0 mm 0 W/m2
18:27 44.8 °F /  7.1 °C 40.2 °F /  4.6 °C 29.94 in /  1013.8 hPa West 9.0 mph /  14.5 km/h 14.0 mph /  22.5 km/h 84 % 0.00 in /  0 mm 0 W/m2
18:32 44.6 °F /  7 °C 40.1 °F /  4.5 °C 29.95 in /  1014.1 hPa WSW 7.0 mph /  11.3 km/h 13.0 mph /  20.9 km/h 84 % 0.00 in /  0 mm 0 W/m2
18:37 44.6 °F /  7 °C 40.1 °F /  4.5 °C 29.95 in /  1014.1 hPa WSW 9.0 mph /  14.5 km/h 15.0 mph /  24.1 km/h 84 % 0.00 in /  0 mm 0 W/m2
18:42 44.6 °F /  7 °C 40.1 °F /  4.5 °C 29.95 in /  1014.1 hPa WSW 9.0 mph /  14.5 km/h 13.0 mph /  20.9 km/h 84 % 0.00 in /  0 mm 0 W/m2
18:48 44.6 °F /  7 °C 40.1 °F /  4.5 °C 29.95 in /  1014.1 hPa West 6.0 mph /  9.7 km/h 10.0 mph /  16.1 km/h 84 % 0.00 in /  0 mm 0 W/m2
18:53 44.6 °F /  7 °C 40.1 °F /  4.5 °C 29.95 in /  1014.1 hPa WSW 7.0 mph /  11.3 km/h 13.0 mph /  20.9 km/h 84 % 0.00 in /  0 mm 0 W/m2
18:58 44.4 °F /  6.9 °C 39.6 °F /  4.2 °C 29.95 in /  1014.1 hPa WSW 8.0 mph /  12.9 km/h 12.0 mph /  19.3 km/h 83 % 0.00 in /  0 mm 0 W/m2
19:03 44.4 °F /  6.9 °C 39.6 °F /  4.2 °C 29.95 in /  1014.1 hPa WSW 7.0 mph /  11.3 km/h 11.0 mph /  17.7 km/h 83 % 0.00 in /  0 mm 0 W/m2
19:08 44.2 °F /  6.8 °C 39.4 °F /  4.1 °C 29.95 in /  1014.1 hPa WSW 8.0 mph /  12.9 km/h 13.0 mph /  20.9 km/h 83 % 0.00 in /  0 mm 0 W/m2
19:13 44.2 °F /  6.8 °C 39.4 °F /  4.1 °C 29.95 in /  1014.1 hPa West 9.0 mph /  14.5 km/h 14.0 mph /  22.5 km/h 83 % 0.00 in /  0 mm 0 W/m2
19:18 44.1 °F /  6.7 °C 39.2 °F /  4 °C 29.95 in /  1014.1 hPa WSW 9.0 mph /  14.5 km/h 14.0 mph /  22.5 km/h 83 % 0.00 in /  0 mm 0 W/m2
19:23 44.1 °F /  6.7 °C 39.2 °F /  4 °C 29.95 in /  1014.1 hPa WSW 11.0 mph /  17.7 km/h 20.0 mph /  32.2 km/h 83 % 0.00 in /  0 mm 0 W/m2
19:28 44.1 °F /  6.7 °C 39.2 °F /  4 °C 29.95 in /  1014.1 hPa West 12.0 mph /  19.3 km/h 20.0 mph /  32.2 km/h 83 % 0.00 in /  0 mm 0 W/m2
19:33 43.9 °F /  6.6 °C 39.1 °F /  3.9 °C 29.95 in /  1014.1 hPa WSW 10.0 mph /  16.1 km/h 15.0 mph /  24.1 km/h 83 % 0.00 in /  0 mm 0 W/m2
19:38 43.9 °F /  6.6 °C 39.1 °F /  3.9 °C 29.95 in /  1014.1 hPa West 12.0 mph /  19.3 km/h 18.0 mph /  29 km/h 83 % 0.00 in /  0 mm 0 W/m2
19:43 43.9 °F /  6.6 °C 39.1 °F /  3.9 °C 29.94 in /  1013.8 hPa West 11.0 mph /  17.7 km/h 18.0 mph /  29 km/h 83 % 0.00 in /  0 mm 0 W/m2
19:48 43.9 °F /  6.6 °C 39.1 °F /  3.9 °C 29.95 in /  1014.1 hPa West 12.0 mph /  19.3 km/h 18.0 mph /  29 km/h 83 % 0.00 in /  0 mm 0 W/m2
19:53 43.7 °F /  6.5 °C 38.9 °F /  3.8 °C 29.95 in /  1014.1 hPa West 10.0 mph /  16.1 km/h 15.0 mph /  24.1 km/h 83 % 0.00 in /  0 mm 0 W/m2
19:58 43.7 °F /  6.5 °C 38.9 °F /  3.8 °C 29.95 in /  1014.1 hPa West 11.0 mph /  17.7 km/h 19.0 mph /  30.6 km/h 83 % 0.00 in /  0 mm 0 W/m2
20:03 43.5 °F /  6.4 °C 38.7 °F /  3.7 °C 29.95 in /  1014.1 hPa West 9.0 mph /  14.5 km/h 14.0 mph /  22.5 km/h 83 % 0.00 in /  0 mm 0 W/m2
20:08 43.5 °F /  6.4 °C 38.7 °F /  3.7 °C 29.94 in /  1013.8 hPa West 9.0 mph /  14.5 km/h 13.0 mph /  20.9 km/h 83 % 0.00 in /  0 mm 0 W/m2
20:13 43.7 °F /  6.5 °C 38.9 °F /  3.8 °C 29.94 in /  1013.8 hPa West 11.0 mph /  17.7 km/h 19.0 mph /  30.6 km/h 83 % 0.00 in /  0 mm 0 W/m2
20:18 43.7 °F /  6.5 °C 38.6 °F /  3.7 °C 29.94 in /  1013.8 hPa West 9.0 mph /  14.5 km/h 14.0 mph /  22.5 km/h 82 % 0.00 in /  0 mm 0 W/m2
20:23 43.7 °F /  6.5 °C 38.9 °F /  3.8 °C 29.95 in /  1014.1 hPa West 11.0 mph /  17.7 km/h 21.0 mph /  33.8 km/h 83 % 0.00 in /  0 mm 0 W/m2
20:28 43.9 °F /  6.6 °C 39.1 °F /  3.9 °C 29.94 in /  1013.8 hPa West 11.0 mph /  17.7 km/h 16.0 mph /  25.7 km/h 83 % 0.00 in /  0 mm 0 W/m2
20:33 43.9 °F /  6.6 °C 39.1 °F /  3.9 °C 29.94 in /  1013.8 hPa West 11.0 mph /  17.7 km/h 19.0 mph /  30.6 km/h 83 % 0.00 in /  0 mm 0 W/m2
20:38 43.7 °F /  6.5 °C 38.9 °F /  3.8 °C 29.94 in /  1013.8 hPa West 10.0 mph /  16.1 km/h 18.0 mph /  29 km/h 83 % 0.00 in /  0 mm 0 W/m2
20:43 43.7 °F /  6.5 °C 39.2 °F /  4 °C 29.93 in /  1013.4 hPa West 11.0 mph /  17.7 km/h 16.0 mph /  25.7 km/h 84 % 0.00 in /  0 mm 0 W/m2
20:48 43.7 °F /  6.5 °C 39.2 °F /  4 °C 29.94 in /  1013.8 hPa WSW 10.0 mph /  16.1 km/h 14.0 mph /  22.5 km/h 84 % 0.00 in /  0 mm 0 W/m2
20:53 43.9 °F /  6.6 °C 39.4 °F /  4.1 °C 29.94 in /  1013.8 hPa West 10.0 mph /  16.1 km/h 16.0 mph /  25.7 km/h 84 % 0.00 in /  0 mm 0 W/m2
20:58 43.9 °F /  6.6 °C 39.4 °F /  4.1 °C 29.94 in /  1013.8 hPa West 9.0 mph /  14.5 km/h 14.0 mph /  22.5 km/h 84 % 0.00 in /  0 mm 0 W/m2
21:04 43.9 °F /  6.6 °C 39.4 °F /  4.1 °C 29.94 in /  1013.8 hPa West 10.0 mph /  16.1 km/h 16.0 mph /  25.7 km/h 84 % 0.00 in /  0 mm 0 W/m2
21:09 43.9 °F /  6.6 °C 39.1 °F /  3.9 °C 29.94 in /  1013.8 hPa West 10.0 mph /  16.1 km/h 15.0 mph /  24.1 km/h 83 % 0.00 in /  0 mm 0 W/m2
21:14 43.9 °F /  6.6 °C 39.1 °F /  3.9 °C 29.93 in /  1013.4 hPa West 7.0 mph /  11.3 km/h 13.0 mph /  20.9 km/h 83 % 0.00 in /  0 mm 0 W/m2
21:19 43.9 °F /  6.6 °C 39.1 °F /  3.9 °C 29.93 in /  1013.4 hPa West 9.0 mph /  14.5 km/h 16.0 mph /  25.7 km/h 83 % 0.00 in /  0 mm 0 W/m2
21:24 43.9 °F /  6.6 °C 39.1 °F /  3.9 °C 29.94 in /  1013.8 hPa West 9.0 mph /  14.5 km/h 13.0 mph /  20.9 km/h 83 % 0.00 in /  0 mm 0 W/m2
21:29 43.9 °F /  6.6 °C 39.1 °F /  3.9 °C 29.94 in /  1013.8 hPa West 12.0 mph /  19.3 km/h 20.0 mph /  32.2 km/h 83 % 0.00 in /  0 mm 0 W/m2
21:34 44.1 °F /  6.7 °C 39.2 °F /  4 °C 29.94 in /  1013.8 hPa West 7.0 mph /  11.3 km/h 11.0 mph /  17.7 km/h 83 % 0.00 in /  0 mm 0 W/m2
21:39 44.1 °F /  6.7 °C 39.2 °F /  4 °C 29.94 in /  1013.8 hPa West 9.0 mph /  14.5 km/h 11.0 mph /  17.7 km/h 83 % 0.00 in /  0 mm 0 W/m2
21:44 44.1 °F /  6.7 °C 39.2 °F /  4 °C 29.94 in /  1013.8 hPa West 3.0 mph /  4.8 km/h 7.0 mph /  11.3 km/h 83 % 0.00 in /  0 mm 0 W/m2
21:49 44.1 °F /  6.7 °C 39.2 °F /  4 °C 29.94 in /  1013.8 hPa West 6.0 mph /  9.7 km/h 11.0 mph /  17.7 km/h 83 % 0.00 in /  0 mm 0 W/m2
21:54 44.1 °F /  6.7 °C 39.2 °F /  4 °C 29.95 in /  1014.1 hPa WSW 3.0 mph /  4.8 km/h 7.0 mph /  11.3 km/h 83 % 0.00 in /  0 mm 0 W/m2
21:59 44.1 °F /  6.7 °C 39.2 °F /  4 °C 29.95 in /  1014.1 hPa SW 1.0 mph /  1.6 km/h 4.0 mph /  6.4 km/h 83 % 0.00 in /  0 mm 0 W/m2
22:04 44.1 °F /  6.7 °C 39.2 °F /  4 °C 29.95 in /  1014.1 hPa SSW 4.0 mph /  6.4 km/h 7.0 mph /  11.3 km/h 83 % 0.00 in /  0 mm 0 W/m2
22:09 44.2 °F /  6.8 °C 39.4 °F /  4.1 °C 29.95 in /  1014.1 hPa Calm   4.0 mph /  6.4 km/h 83 % 0.00 in /  0 mm 0 W/m2
22:14 44.2 °F /  6.8 °C 39.4 °F /  4.1 °C 29.95 in /  1014.1 hPa SW 3.0 mph /  4.8 km/h 6.0 mph /  9.7 km/h 83 % 0.00 in /  0 mm 0 W/m2
22:19 44.2 °F /  6.8 °C 39.1 °F /  3.9 °C 29.94 in /  1013.8 hPa Calm     82 % 0.00 in /  0 mm 0 W/m2
22:24 44.2 °F /  6.8 °C 39.4 °F /  4.1 °C 29.94 in /  1013.8 hPa SW 4.0 mph /  6.4 km/h 8.0 mph /  12.9 km/h 83 % 0.00 in /  0 mm 0 W/m2
22:29 44.2 °F /  6.8 °C 39.1 °F /  3.9 °C 29.94 in /  1013.8 hPa Calm   2.0 mph /  3.2 km/h 82 % 0.00 in /  0 mm 0 W/m2
22:34 44.1 °F /  6.7 °C 38.9 °F /  3.8 °C 29.93 in /  1013.4 hPa ESE 1.0 mph /  1.6 km/h 5.0 mph /  8 km/h 82 % 0.00 in /  0 mm 0 W/m2
22:39 44.1 °F /  6.7 °C 38.9 °F /  3.8 °C 29.94 in /  1013.8 hPa West 3.0 mph /  4.8 km/h 7.0 mph /  11.3 km/h 82 % 0.00 in /  0 mm 0 W/m2
22:44 44.2 °F /  6.8 °C 38.8 °F /  3.8 °C 29.93 in /  1013.4 hPa WSW 6.0 mph /  9.7 km/h 11.0 mph /  17.7 km/h 81 % 0.00 in /  0 mm 0 W/m2
22:49 44.4 °F /  6.9 °C 38.3 °F /  3.5 °C 29.93 in /  1013.4 hPa WSW 5.0 mph /  8 km/h 11.0 mph /  17.7 km/h 79 % 0.00 in /  0 mm 0 W/m2
22:54 44.8 °F /  7.1 °C 38.3 °F /  3.5 °C 29.93 in /  1013.4 hPa WSW 5.0 mph /  8 km/h 9.0 mph /  14.5 km/h 78 % 0.00 in /  0 mm 0 W/m2
22:59 45.0 °F /  7.2 °C 38.2 °F /  3.4 °C 29.93 in /  1013.4 hPa West 12.0 mph /  19.3 km/h 20.0 mph /  32.2 km/h 77 % 0.00 in /  0 mm 0 W/m2
23:04 45.3 °F /  7.4 °C 38.2 °F /  3.4 °C 29.93 in /  1013.4 hPa West 9.0 mph /  14.5 km/h 13.0 mph /  20.9 km/h 76 % 0.00 in /  0 mm 0 W/m2
23:09 45.5 °F /  7.5 °C 38.0 °F /  3.3 °C 29.93 in /  1013.4 hPa West 7.0 mph /  11.3 km/h 10.0 mph /  16.1 km/h 75 % 0.00 in /  0 mm 0 W/m2
23:14 45.5 °F /  7.5 °C 38.0 °F /  3.3 °C 29.93 in /  1013.4 hPa West 8.0 mph /  12.9 km/h 13.0 mph /  20.9 km/h 75 % 0.00 in /  0 mm 0 W/m2
23:19 45.5 °F /  7.5 °C 38.0 °F /  3.3 °C 29.93 in /  1013.4 hPa West 8.0 mph /  12.9 km/h 15.0 mph /  24.1 km/h 75 % 0.00 in /  0 mm 0 W/m2
23:24 45.7 °F /  7.6 °C 38.2 °F /  3.4 °C 29.94 in /  1013.8 hPa WNW 4.0 mph /  6.4 km/h 9.0 mph /  14.5 km/h 75 % 0.00 in /  0 mm 0 W/m2
23:29 45.5 °F /  7.5 °C 38.0 °F /  3.3 °C 29.94 in /  1013.8 hPa ESE 2.0 mph /  3.2 km/h 5.0 mph /  8 km/h 75 % 0.00 in /  0 mm 0 W/m2
23:35 45.1 °F /  7.3 °C 37.7 °F /  3.2 °C 29.93 in /  1013.4 hPa South 1.0 mph /  1.6 km/h 2.0 mph /  3.2 km/h 75 % 0.00 in /  0 mm 0 W/m2
23:40 45.0 °F /  7.2 °C 37.8 °F /  3.2 °C 29.94 in /  1013.8 hPa SW 3.0 mph /  4.8 km/h 9.0 mph /  14.5 km/h 76 % 0.00 in /  0 mm 0 W/m2
23:45 45.0 °F /  7.2 °C 37.8 °F /  3.2 °C 29.94 in /  1013.8 hPa East 3.0 mph /  4.8 km/h 6.0 mph /  9.7 km/h 76 % 0.00 in /  0 mm 0 W/m2
23:50 44.6 °F /  7 °C 37.5 °F /  3.1 °C 29.94 in /  1013.8 hPa ENE 3.0 mph /  4.8 km/h 5.0 mph /  8 km/h 76 % 0.00 in /  0 mm 0 W/m2
23:55 44.4 °F /  6.9 °C 37.7 °F /  3.2 °C 29.93 in /  1013.4 hPa ENE 5.0 mph /  8 km/h 7.0 mph /  11.3 km/h 77 % 0.00 in /  0 mm 0 W/m2
Delerius-Weather
Compliments of Weather Underground - 2.25 mb

Data updates at regular intervals.